createdAt,value
2019-05-16T00:01:40.238Z,5.72
2019-05-16T00:04:11.812Z,5.80
2019-05-16T00:06:43.281Z,5.15
2019-05-16T00:09:14.534Z,4.75
2019-05-16T00:11:46.101Z,4.60
2019-05-16T00:14:18.815Z,4.50
2019-05-16T00:16:50.395Z,4.85
2019-05-16T00:19:21.749Z,4.97
2019-05-16T00:21:54.150Z,4.67
2019-05-16T00:24:25.797Z,4.92
2019-05-16T00:26:58.046Z,5.03
2019-05-16T00:29:29.390Z,4.37
2019-05-16T00:32:00.719Z,4.33
2019-05-16T00:34:32.347Z,4.25
2019-05-16T00:37:04.175Z,3.95
2019-05-16T00:39:35.755Z,5.37
2019-05-16T00:42:08.857Z,4.37
2019-05-16T00:44:40.275Z,3.80
2019-05-16T00:47:12.001Z,3.55
2019-05-16T00:49:43.583Z,3.02
2019-05-16T00:52:14.782Z,2.98
2019-05-16T00:54:46.031Z,2.87
2019-05-16T00:57:18.812Z,2.52
2019-05-16T00:59:52.038Z,2.40
2019-05-16T01:02:23.451Z,2.42
2019-05-16T01:04:55.822Z,2.60
2019-05-16T01:07:27.812Z,2.45
2019-05-16T01:09:59.034Z,2.67
2019-05-16T01:12:30.313Z,2.55
2019-05-16T01:15:01.640Z,2.50
2019-05-16T01:17:33.091Z,2.30
2019-05-16T01:20:04.945Z,2.55
2019-05-16T01:22:38.225Z,2.75
2019-05-16T01:25:09.679Z,2.52
2019-05-16T01:27:41.288Z,2.45
2019-05-16T01:30:13.002Z,2.52
2019-05-16T01:32:44.716Z,2.80
2019-05-16T01:35:16.088Z,2.47
2019-05-16T01:37:48.833Z,2.60
2019-05-16T01:40:20.334Z,2.83
2019-05-16T01:42:52.024Z,3.05
2019-05-16T01:45:23.367Z,2.80
2019-05-16T01:47:54.928Z,2.60
2019-05-16T01:50:28.374Z,6.42
2019-05-16T01:53:00.134Z,4.10
2019-05-16T01:55:31.428Z,2.80
2019-05-16T01:58:03.221Z,3.02
2019-05-16T02:00:37.625Z,2.70
2019-05-16T02:03:08.302Z,3.20
2019-05-16T02:05:41.140Z,3.22
2019-05-16T02:08:12.539Z,3.05
2019-05-16T02:10:43.942Z,2.65
2019-05-16T02:13:15.190Z,3.10
2019-05-16T02:15:48.644Z,2.87
2019-05-16T02:18:19.404Z,2.90
2019-05-16T02:20:50.551Z,3.47
2019-05-16T02:23:21.707Z,2.52
2019-05-16T02:25:53.032Z,2.70
2019-05-16T02:28:30.270Z,3.00
2019-05-16T02:31:00.919Z,3.02
2019-05-16T02:33:31.676Z,2.95
2019-05-16T02:36:03.531Z,2.62
2019-05-16T02:38:34.936Z,2.83
2019-05-16T02:41:06.321Z,2.60
2019-05-16T02:43:37.574Z,3.05
2019-05-16T02:46:11.883Z,2.80
2019-05-16T02:48:42.463Z,2.55
2019-05-16T02:51:13.796Z,2.50
2019-05-16T02:53:45.150Z,2.40
2019-05-16T02:56:16.463Z,3.33
2019-05-16T02:58:47.637Z,2.50
2019-05-16T03:01:21.579Z,2.70
2019-05-16T03:03:52.193Z,2.50
2019-05-16T03:06:27.065Z,2.40
2019-05-16T03:09:04.740Z,2.27
2019-05-16T03:11:34.395Z,2.70
2019-05-16T03:14:06.669Z,2.60
2019-05-16T03:16:41.806Z,2.12
2019-05-16T03:19:16.205Z,2.00
2019-05-16T03:21:50.898Z,2.08
2019-05-16T03:24:22.106Z,2.65
2019-05-16T03:26:53.315Z,2.77
2019-05-16T03:29:24.405Z,2.47
2019-05-16T03:31:55.942Z,2.37
2019-05-16T03:34:27.510Z,2.30
2019-05-16T03:37:04.124Z,2.12
2019-05-16T03:39:32.287Z,2.33
2019-05-16T03:42:04.093Z,2.30
2019-05-16T03:44:35.265Z,2.65
2019-05-16T03:47:06.648Z,2.27
2019-05-16T03:49:37.881Z,2.50
2019-05-16T03:52:11.339Z,2.00
2019-05-16T03:54:42.237Z,2.20
2019-05-16T03:57:14.822Z,2.40
2019-05-16T03:59:46.272Z,2.20
2019-05-16T04:02:17.600Z,2.90
2019-05-16T04:04:51.078Z,2.25
2019-05-16T04:07:23.828Z,2.00
2019-05-16T04:09:55.403Z,2.50
2019-05-16T04:12:26.569Z,2.42
2019-05-16T04:14:58.011Z,2.33
2019-05-16T04:17:31.635Z,2.87
2019-05-16T04:20:02.563Z,2.70
2019-05-16T04:22:33.796Z,2.37
2019-05-16T04:25:07.395Z,2.90
2019-05-16T04:27:41.594Z,2.42
2019-05-16T04:30:12.298Z,2.98
2019-05-16T04:32:43.929Z,2.60
2019-05-16T04:35:15.480Z,3.08
2019-05-16T04:37:47.034Z,2.50
2019-05-16T04:40:21.653Z,2.62
2019-05-16T04:42:51.725Z,5.92
2019-05-16T04:45:24.651Z,3.30
2019-05-16T04:47:55.825Z,3.08
2019-05-16T04:50:27.143Z,2.70
2019-05-16T04:53:01.151Z,2.83
2019-05-16T04:55:34.262Z,3.58
2019-05-16T04:58:06.109Z,2.83
2019-05-16T05:00:37.377Z,2.60
2019-05-16T05:03:11.746Z,3.75
2019-05-16T05:05:42.309Z,2.62
2019-05-16T05:08:13.451Z,2.85
2019-05-16T05:10:44.559Z,3.35
2019-05-16T05:13:15.856Z,2.95
2019-05-16T05:15:47.154Z,2.50
2019-05-16T05:18:21.174Z,2.40
2019-05-16T05:20:52.739Z,2.45
2019-05-16T05:23:24.709Z,2.33
2019-05-16T05:25:55.955Z,2.55
2019-05-16T05:28:29.762Z,2.60
2019-05-16T05:31:00.571Z,2.62
2019-05-16T05:33:32.153Z,2.50
2019-05-16T05:36:03.699Z,2.70
2019-05-16T05:38:35.284Z,2.80
2019-05-16T05:41:07.007Z,2.50
2019-05-16T05:43:39.769Z,2.90
2019-05-16T05:46:11.380Z,3.00
2019-05-16T05:48:42.755Z,3.60
2019-05-16T05:51:13.934Z,3.83
2019-05-16T05:53:45.300Z,4.28
2019-05-16T05:56:16.462Z,4.15
2019-05-16T05:58:47.713Z,4.15
2019-05-16T06:01:20.521Z,4.10
2019-05-16T06:03:52.299Z,4.92
2019-05-16T06:06:23.542Z,4.70
2019-05-16T06:08:54.836Z,5.22
2019-05-16T06:11:26.088Z,5.87
2019-05-16T06:13:57.664Z,5.78
2019-05-16T06:16:30.782Z,5.33
2019-05-16T06:19:01.752Z,5.83
2019-05-16T06:21:34.168Z,5.75
2019-05-16T06:24:05.628Z,4.87
2019-05-16T06:26:37.152Z,4.85
2019-05-16T06:29:10.482Z,4.50
2019-05-16T06:31:41.538Z,4.90
2019-05-16T06:34:15.219Z,4.55
2019-05-16T06:36:46.489Z,4.53
2019-05-16T06:39:19.794Z,4.12
2019-05-16T06:41:51.096Z,4.60
2019-05-16T06:44:22.697Z,4.15
2019-05-16T06:47:07.289Z,3.65
2019-05-16T06:49:27.059Z,3.60
2019-05-16T06:51:59.706Z,3.40
2019-05-16T06:54:31.363Z,3.02
2019-05-16T06:57:02.665Z,3.17
2019-05-16T06:59:33.889Z,2.70
2019-05-16T07:02:05.179Z,3.17
2019-05-16T07:04:36.395Z,2.77
2019-05-16T07:07:12.037Z,3.33
2019-05-16T07:09:57.016Z,3.02
2019-05-16T07:12:13.655Z,2.80
2019-05-16T07:14:45.904Z,2.70
2019-05-16T07:17:17.002Z,2.60
2019-05-16T07:19:50.283Z,5.22
2019-05-16T07:22:21.464Z,2.85
2019-05-16T07:24:52.741Z,2.77
2019-05-16T07:27:24.693Z,3.77
2019-05-16T07:29:57.817Z,3.62
2019-05-16T07:32:30.269Z,3.35
2019-05-16T07:35:02.818Z,3.60
2019-05-16T07:37:33.587Z,4.25
2019-05-16T07:40:15.957Z,2.72
2019-05-16T07:42:40.369Z,2.30
2019-05-16T07:45:12.539Z,4.50
2019-05-16T07:47:43.713Z,4.62
2019-05-16T07:50:15.103Z,2.20
2019-05-16T07:52:46.296Z,2.30
2019-05-16T07:55:20.590Z,2.37
2019-05-16T07:57:51.523Z,2.10
2019-05-16T08:00:41.973Z,2.60
2019-05-16T08:02:56.264Z,1.90
2019-05-16T08:05:29.869Z,2.02
2019-05-16T08:08:00.434Z,2.42
2019-05-16T08:10:40.803Z,2.30
2019-05-16T08:13:04.984Z,2.05
2019-05-16T08:15:36.686Z,2.10
2019-05-16T08:18:11.056Z,2.00
2019-05-16T08:20:42.412Z,2.17
2019-05-16T08:23:13.693Z,2.00
2019-05-16T08:25:44.930Z,2.00
2019-05-16T08:28:16.173Z,2.72
2019-05-16T08:30:47.459Z,2.22
2019-05-16T08:35:51.973Z,2.58
2019-05-16T08:38:23.930Z,2.40
2019-05-16T08:43:31.395Z,2.80
2019-05-16T08:46:01.738Z,3.87
2019-05-16T08:48:32.949Z,18.87
2019-05-16T08:50:05.960Z,2.80
2019-05-16T08:51:04.237Z,7.30
2019-05-16T08:53:35.860Z,13.88
2019-05-16T08:56:07.156Z,10.30
2019-05-16T08:58:41.017Z,7.97
2019-05-16T09:01:14.759Z,3.77
2019-05-16T09:03:44.667Z,4.00
2019-05-16T09:06:16.193Z,4.20
2019-05-16T09:08:48.045Z,3.55
2019-05-16T09:10:20.961Z,2.70
2019-05-16T09:11:33.750Z,3.95
2019-05-16T09:13:52.459Z,3.02
2019-05-16T09:16:23.722Z,3.05
2019-05-16T09:18:57.302Z,3.15
2019-05-16T09:21:28.627Z,3.42
2019-05-16T09:23:59.904Z,5.22
2019-05-16T09:26:31.517Z,3.52
2019-05-16T09:29:03.079Z,3.67
2019-05-16T09:31:34.417Z,3.83
2019-05-16T09:34:07.484Z,3.30
2019-05-16T09:36:38.615Z,3.10
2019-05-16T09:39:10.427Z,3.50
2019-05-16T09:41:50.970Z,3.52
2019-05-16T09:44:18.195Z,5.00
2019-05-16T09:46:47.937Z,2.77
2019-05-16T09:49:24.555Z,2.70
2019-05-16T09:51:52.781Z,3.27
2019-05-16T09:54:24.316Z,2.80
2019-05-16T09:56:57.154Z,5.30
2019-05-16T09:59:40.724Z,2.65
2019-05-16T10:02:13.053Z,3.52
2019-05-16T10:04:47.209Z,3.35
2019-05-16T10:07:18.099Z,3.22
2019-05-16T10:09:50.351Z,5.85
2019-05-16T10:12:23.023Z,4.70
2019-05-16T10:14:54.128Z,3.47
2019-05-16T10:17:27.306Z,3.90
2019-05-16T10:20:00.099Z,2.95
2019-05-16T10:22:32.077Z,2.70
2019-05-16T10:25:04.364Z,3.20
2019-05-16T10:27:36.758Z,4.92
2019-05-16T10:30:10.070Z,4.62
2019-05-16T10:32:41.680Z,3.27
2019-05-16T10:35:14.636Z,3.37
2019-05-16T10:37:47.006Z,3.12
2019-05-16T10:40:20.612Z,2.80
2019-05-16T10:42:51.990Z,2.83
2019-05-16T10:45:23.347Z,3.87
2019-05-16T10:47:54.555Z,4.30
2019-05-16T10:50:27.664Z,3.75
2019-05-16T10:53:22.416Z,3.75
2019-05-16T10:55:31.914Z,4.60
2019-05-16T10:58:03.043Z,2.77
2019-05-16T11:01:06.614Z,3.08
2019-05-16T11:03:07.441Z,3.00
2019-05-16T11:05:39.748Z,3.22
2019-05-16T11:08:11.429Z,2.50
2019-05-16T11:10:42.908Z,3.35
2019-05-16T11:13:19.824Z,3.30
2019-05-16T11:15:47.378Z,3.05
2019-05-16T11:18:18.900Z,3.05
2019-05-16T11:20:50.171Z,7.22
2019-05-16T11:23:23.706Z,5.47
2019-05-16T11:25:55.405Z,4.97
2019-05-16T11:28:27.917Z,6.70
2019-05-16T11:31:03.110Z,4.42
2019-05-16T11:33:32.183Z,3.70
2019-05-16T11:36:03.442Z,3.10
2019-05-16T11:38:37.775Z,3.65
2019-05-16T11:41:07.706Z,3.05
2019-05-16T11:43:38.987Z,3.45
2019-05-16T11:46:10.276Z,3.65
2019-05-16T11:48:41.563Z,3.20
2019-05-16T11:51:13.129Z,3.83
2019-05-16T11:53:47.508Z,3.45
2019-05-16T11:56:17.695Z,4.25
2019-05-16T11:58:48.902Z,4.15
2019-05-16T12:01:20.164Z,4.22
2019-05-16T12:03:51.399Z,4.67
2019-05-16T12:06:22.582Z,4.28
2019-05-16T12:08:53.956Z,4.28
2019-05-16T12:11:27.459Z,3.58
2019-05-16T12:13:58.188Z,3.72
2019-05-16T12:16:29.453Z,3.80
2019-05-16T12:19:00.659Z,8.83
2019-05-16T12:21:31.856Z,4.03
2019-05-16T12:24:03.068Z,4.00
2019-05-16T12:26:34.251Z,3.62
2019-05-16T12:29:07.012Z,3.60
2019-05-16T12:31:52.819Z,3.77
2019-05-16T12:34:11.973Z,4.00
2019-05-16T12:36:43.061Z,3.72
2019-05-16T12:39:17.076Z,3.60
2019-05-16T12:41:49.219Z,3.00
2019-05-16T12:44:20.726Z,3.67
2019-05-16T12:46:51.926Z,3.02
2019-05-16T12:49:23.846Z,3.55
2019-05-16T12:51:57.014Z,3.65
2019-05-16T12:54:28.369Z,5.33
2019-05-16T12:56:59.860Z,3.67
2019-05-16T12:59:31.068Z,3.80
2019-05-16T13:02:02.176Z,3.52
2019-05-16T13:04:33.692Z,3.37
2019-05-16T13:07:08.839Z,3.85
2019-05-16T13:09:37.931Z,3.87
2019-05-16T13:12:09.181Z,3.55
2019-05-16T13:14:40.615Z,3.40
2019-05-16T13:17:12.054Z,6.05
2019-05-16T13:19:47.648Z,4.78
2019-05-16T13:22:17.017Z,3.62
2019-05-16T13:24:48.448Z,4.15
2019-05-16T13:27:23.038Z,3.85
2019-05-16T13:29:52.902Z,3.62
2019-05-16T13:32:26.919Z,3.33
2019-05-16T13:34:58.997Z,3.50
2019-05-16T13:37:31.651Z,3.65
2019-05-16T13:40:03.185Z,3.90
2019-05-16T13:42:36.837Z,2.98
2019-05-16T13:45:09.420Z,3.47
2019-05-16T13:47:40.679Z,4.03
2019-05-16T13:50:12.767Z,5.22
2019-05-16T13:52:44.484Z,4.15
2019-05-16T13:55:16.746Z,3.77
2019-05-16T13:57:48.530Z,3.40
2019-05-16T14:00:20.306Z,4.37
2019-05-16T14:02:51.570Z,4.42
2019-05-16T14:05:23.648Z,4.20
2019-05-16T14:07:57.101Z,3.58
2019-05-16T14:10:29.773Z,4.22
2019-05-16T14:13:00.901Z,3.35
2019-05-16T14:15:32.246Z,4.15
2019-05-16T14:18:03.723Z,4.83
2019-05-16T14:20:37.619Z,4.25
2019-05-16T14:23:08.939Z,3.95
2019-05-16T14:25:40.364Z,3.98
2019-05-16T14:28:11.764Z,3.85
2019-05-16T14:30:43.461Z,4.08
2019-05-16T14:33:16.963Z,4.25
2019-05-16T14:35:47.927Z,4.45
2019-05-16T14:38:19.498Z,4.50
2019-05-16T14:40:50.959Z,4.75
2019-05-16T14:43:22.333Z,4.80
2019-05-16T14:45:53.563Z,4.65
2019-05-16T14:48:27.582Z,4.42
2019-05-16T14:50:58.820Z,4.42
2019-05-16T14:53:31.276Z,5.20
2019-05-16T14:56:06.804Z,6.30
2019-05-16T14:58:37.774Z,5.17
2019-05-16T15:01:10.012Z,5.08
2019-05-16T15:03:41.281Z,5.45
2019-05-16T15:06:12.657Z,5.35
2019-05-16T15:08:43.996Z,5.53
2019-05-16T15:11:17.843Z,5.15
2019-05-16T15:13:48.610Z,6.20
2019-05-16T15:16:19.932Z,5.22
2019-05-16T15:18:51.383Z,4.30
2019-05-16T15:21:22.704Z,4.33
2019-05-16T15:23:54.329Z,6.10
2019-05-16T15:26:27.225Z,6.37
2019-05-16T15:28:59.214Z,5.90
2019-05-16T15:31:30.684Z,5.90
2019-05-16T15:34:01.997Z,7.85
2019-05-16T15:36:33.348Z,5.17
2019-05-16T15:39:08.261Z,4.03
2019-05-16T15:41:39.914Z,4.53
2019-05-16T15:44:11.305Z,4.42
2019-05-16T15:46:44.023Z,6.85
2019-05-16T15:49:17.166Z,4.53
2019-05-16T15:51:49.709Z,4.35
2019-05-16T15:54:28.302Z,5.70
2019-05-16T15:56:58.295Z,5.75
2019-05-16T15:59:29.667Z,4.47
2019-05-16T16:02:00.875Z,4.00
2019-05-16T16:04:32.326Z,3.83
2019-05-16T16:07:03.908Z,4.20
2019-05-16T16:09:37.617Z,5.03
2019-05-16T16:12:10.776Z,4.87
2019-05-16T16:14:41.619Z,5.45
2019-05-16T16:17:14.125Z,5.85
2019-05-16T16:19:46.903Z,6.58
2019-05-16T16:22:19.225Z,6.15
2019-05-16T16:24:51.028Z,6.95
2019-05-16T16:27:23.377Z,5.87
2019-05-16T16:29:54.704Z,6.10
2019-05-16T16:32:26.882Z,6.10
2019-05-16T16:34:59.512Z,6.22
2019-05-16T16:37:31.278Z,5.42
2019-05-16T16:40:02.908Z,6.40
2019-05-16T16:42:37.114Z,9.78
2019-05-16T16:45:08.497Z,6.40
2019-05-16T16:47:39.803Z,5.12
2019-05-16T16:50:12.235Z,6.72
2019-05-16T16:52:43.558Z,7.12
2019-05-16T16:55:16.990Z,5.75
2019-05-16T16:57:48.308Z,5.28
2019-05-16T17:00:20.324Z,5.05
2019-05-16T17:03:03.373Z,5.45
2019-05-16T17:05:26.557Z,6.15
2019-05-16T17:07:57.888Z,6.05
2019-05-16T17:10:29.226Z,5.85
2019-05-16T17:13:01.022Z,5.37
2019-05-16T17:15:32.652Z,5.90
2019-05-16T17:18:06.743Z,7.62
2019-05-16T17:20:37.581Z,7.20
2019-05-16T17:23:08.853Z,7.05
2019-05-16T17:25:40.519Z,8.10
2019-05-16T17:28:12.062Z,7.53
2019-05-16T17:30:43.464Z,7.10
2019-05-16T17:33:17.837Z,6.87
2019-05-16T17:35:48.960Z,9.60
2019-05-16T17:38:20.534Z,11.68
2019-05-16T17:40:51.946Z,17.50
2019-05-16T17:43:23.362Z,15.38
2019-05-16T17:45:57.291Z,15.85
2019-05-16T17:48:29.929Z,14.63
2019-05-16T17:51:01.089Z,12.43
2019-05-16T17:53:32.256Z,19.30
2019-05-16T17:56:06.660Z,20.80
2019-05-16T17:58:37.414Z,12.40
2019-05-16T18:01:09.569Z,10.35
2019-05-16T18:03:41.142Z,9.45
2019-05-16T18:06:12.947Z,10.63
2019-05-16T18:08:46.699Z,9.93
2019-05-16T18:11:17.862Z,8.70
2019-05-16T18:13:49.099Z,9.15
2019-05-16T18:16:20.469Z,8.45
2019-05-16T18:18:51.688Z,8.90
2019-05-16T18:21:23.544Z,7.37
2019-05-16T18:23:54.816Z,7.60
2019-05-16T18:26:26.865Z,7.08
2019-05-16T18:28:58.522Z,7.35
2019-05-16T18:31:32.242Z,8.25
2019-05-16T18:34:03.598Z,7.87
2019-05-16T18:36:34.756Z,8.83
2019-05-16T18:39:07.827Z,7.70
2019-05-16T18:41:39.111Z,7.70
2019-05-16T18:44:10.694Z,8.40
2019-05-16T18:46:42.484Z,8.43
2019-05-16T18:49:13.678Z,7.60
2019-05-16T18:51:46.514Z,7.87
2019-05-16T18:54:17.967Z,8.53
2019-05-16T18:56:49.396Z,9.33
2019-05-16T18:59:20.643Z,8.30
2019-05-16T19:01:52.371Z,9.15
2019-05-16T19:04:24.020Z,9.38
2019-05-16T19:06:56.600Z,8.98
2019-05-16T19:09:28.724Z,9.60
2019-05-16T19:12:00.072Z,10.50
2019-05-16T19:14:31.637Z,9.30
2019-05-16T19:17:02.948Z,8.75
2019-05-16T19:19:34.463Z,9.58
2019-05-16T19:22:06.618Z,9.35
2019-05-16T19:24:37.993Z,9.83
2019-05-16T19:27:09.678Z,9.40
2019-05-16T19:29:41.200Z,10.00
2019-05-16T19:32:12.599Z,9.78
2019-05-16T19:34:43.852Z,9.80
2019-05-16T19:37:16.155Z,9.78
2019-05-16T19:39:47.687Z,9.63
2019-05-16T19:42:19.613Z,9.68
2019-05-16T19:44:50.896Z,9.55
2019-05-16T19:47:34.028Z,9.25
2019-05-16T19:49:56.986Z,8.45
2019-05-16T19:52:28.393Z,8.98
2019-05-16T19:55:00.891Z,9.80
2019-05-16T19:57:33.283Z,10.45
2019-05-16T20:00:05.212Z,13.08
2019-05-16T20:02:37.013Z,10.80
2019-05-16T20:05:09.518Z,8.73
2019-05-16T20:07:40.834Z,9.43
2019-05-16T20:10:12.634Z,9.73
2019-05-16T20:12:46.163Z,9.80
2019-05-16T20:15:17.242Z,9.35
2019-05-16T20:17:57.770Z,11.20
2019-05-16T20:20:22.736Z,9.83
2019-05-16T20:22:54.029Z,10.88
2019-05-16T20:25:26.841Z,10.30
2019-05-16T20:27:58.345Z,11.22
2019-05-16T20:30:29.652Z,10.25
2019-05-16T20:33:01.083Z,9.90
2019-05-16T20:35:32.300Z,9.73
2019-05-16T20:38:03.523Z,10.32
2019-05-16T20:40:37.369Z,11.97
2019-05-16T20:43:08.537Z,12.93
2019-05-16T20:45:39.953Z,10.25
2019-05-16T20:48:15.291Z,10.55
2019-05-16T20:50:48.871Z,11.18
2019-05-16T20:53:19.384Z,11.00
2019-05-16T20:55:50.687Z,10.48
2019-05-16T20:58:22.378Z,10.82
2019-05-16T21:00:53.629Z,11.05
2019-05-16T21:03:27.052Z,10.18
2019-05-16T21:05:58.595Z,10.10
2019-05-16T21:08:29.865Z,10.15
2019-05-16T21:11:01.451Z,10.63
2019-05-16T21:13:33.104Z,10.72
2019-05-16T21:16:04.395Z,23.70
2019-05-16T21:18:37.638Z,12.73
2019-05-16T21:21:08.686Z,10.93
2019-05-16T21:23:40.344Z,12.23
2019-05-16T21:26:12.857Z,12.30
2019-05-16T21:28:46.135Z,11.45
2019-05-16T21:31:19.424Z,11.63
2019-05-16T21:33:50.545Z,11.48
2019-05-16T21:36:22.292Z,12.58
2019-05-16T21:38:53.549Z,11.63
2019-05-16T21:41:26.987Z,11.30
2019-05-16T21:43:57.679Z,11.55
2019-05-16T21:46:28.977Z,11.95
2019-05-16T21:49:00.684Z,11.60
2019-05-16T21:51:31.967Z,12.75
2019-05-16T21:54:03.580Z,12.82
2019-05-16T21:56:37.142Z,12.98
2019-05-16T21:59:07.856Z,12.23
2019-05-16T22:01:39.241Z,12.73
2019-05-16T22:04:10.950Z,12.33
2019-05-16T22:06:42.246Z,12.63
2019-05-16T22:09:13.627Z,13.20
2019-05-16T22:11:46.926Z,11.83
2019-05-16T22:14:24.596Z,12.80
2019-05-16T22:16:56.905Z,12.28
2019-05-16T22:19:29.565Z,12.73
2019-05-16T22:22:00.926Z,14.05
2019-05-16T22:24:32.555Z,13.55
2019-05-16T22:27:03.848Z,14.43
2019-05-16T22:29:37.431Z,14.13
2019-05-16T22:32:09.323Z,14.00
2019-05-16T22:34:41.020Z,14.33
2019-05-16T22:37:12.562Z,14.03
2019-05-16T22:39:44.219Z,14.15
2019-05-16T22:42:17.629Z,14.23
2019-05-16T22:44:48.768Z,13.03
2019-05-16T22:47:19.990Z,13.55
2019-05-16T22:49:52.184Z,14.23
2019-05-16T22:52:23.828Z,14.15
2019-05-16T22:54:56.727Z,14.03
2019-05-16T22:57:28.126Z,14.80
2019-05-16T22:59:59.471Z,14.73
2019-05-16T23:02:30.667Z,13.68
2019-05-16T23:05:01.919Z,14.33
2019-05-16T23:07:36.686Z,13.35
2019-05-16T23:10:08.942Z,13.93
2019-05-16T23:12:40.494Z,13.98
2019-05-16T23:15:13.245Z,13.32
2019-05-16T23:17:46.564Z,14.10
2019-05-16T23:20:18.376Z,13.43
2019-05-16T23:22:50.012Z,14.50
2019-05-16T23:25:21.306Z,14.23
2019-05-16T23:27:52.580Z,14.47
2019-05-16T23:30:27.087Z,13.93
2019-05-16T23:32:58.900Z,13.93
2019-05-16T23:35:30.588Z,14.33
2019-05-16T23:38:01.847Z,14.90
2019-05-16T23:40:33.183Z,15.13
2019-05-16T23:43:04.440Z,14.38
2019-05-16T23:45:37.656Z,13.98
2019-05-16T23:48:10.487Z,12.43
2019-05-16T23:50:42.849Z,13.58
2019-05-16T23:53:16.340Z,12.53
2019-05-16T23:55:47.221Z,14.40
2019-05-16T23:58:18.644Z,13.83
